sensor_id;sensor_type;location;lat;lon;timestamp;P1;durP1;ratioP1;P2;durP2;ratioP2
64595;SDS011;51003;51.628;6.670;2023-03-01T00:56:46;11.70;;;6.95;;
64595;SDS011;51003;51.628;6.670;2023-03-01T07:06:48;11.40;;;8.10;;
64595;SDS011;51003;51.628;6.670;2023-03-01T07:09:19;13.02;;;8.27;;
64595;SDS011;51003;51.628;6.670;2023-03-01T07:11:48;15.07;;;8.43;;
64595;SDS011;51003;51.628;6.670;2023-03-01T07:14:14;15.33;;;8.37;;
64595;SDS011;51003;51.628;6.670;2023-03-01T07:16:39;13.23;;;7.93;;
64595;SDS011;51003;51.628;6.670;2023-03-01T07:19:04;15.47;;;9.50;;
64595;SDS011;51003;51.628;6.670;2023-03-01T07:21:30;19.00;;;8.97;;
64595;SDS011;51003;51.628;6.670;2023-03-01T07:23:56;14.77;;;9.10;;
64595;SDS011;51003;51.628;6.670;2023-03-01T07:29:39;17.00;;;8.30;;
64595;SDS011;51003;51.628;6.670;2023-03-01T07:32:05;15.80;;;7.83;;
64595;SDS011;51003;51.628;6.670;2023-03-01T07:34:31;13.50;;;8.50;;
64595;SDS011;51003;51.628;6.670;2023-03-01T07:36:57;17.77;;;8.03;;
64595;SDS011;51003;51.628;6.670;2023-03-01T07:39:23;15.73;;;7.83;;
64595;SDS011;51003;51.628;6.670;2023-03-01T07:41:49;18.70;;;8.00;;
64595;SDS011;51003;51.628;6.670;2023-03-01T07:44:15;16.83;;;8.60;;
64595;SDS011;51003;51.628;6.670;2023-03-01T07:46:42;15.75;;;7.72;;
64595;SDS011;51003;51.628;6.670;2023-03-01T07:49:07;18.47;;;8.50;;
64595;SDS011;51003;51.628;6.670;2023-03-01T07:51:33;16.27;;;8.00;;
64595;SDS011;51003;51.628;6.670;2023-03-01T07:53:59;13.30;;;7.67;;
64595;SDS011;51003;51.628;6.670;2023-03-01T07:56:24;12.67;;;7.23;;
64595;SDS011;51003;51.628;6.670;2023-03-01T07:58:49;13.20;;;7.20;;
64595;SDS011;51003;51.628;6.670;2023-03-01T08:01:16;11.30;;;6.97;;
64595;SDS011;51003;51.628;6.670;2023-03-01T08:03:43;13.75;;;6.82;;
64595;SDS011;51003;51.628;6.670;2023-03-01T08:06:11;14.75;;;7.03;;
64595;SDS011;51003;51.628;6.670;2023-03-01T08:08:38;15.30;;;7.13;;
64595;SDS011;51003;51.628;6.670;2023-03-01T08:11:04;11.90;;;6.50;;
64595;SDS011;51003;51.628;6.670;2023-03-01T08:13:30;11.95;;;6.53;;
64595;SDS011;51003;51.628;6.670;2023-03-01T08:16:06;14.63;;;6.30;;
64595;SDS011;51003;51.628;6.670;2023-03-01T08:18:33;10.00;;;6.38;;
64595;SDS011;51003;51.628;6.670;2023-03-01T08:21:03;11.40;;;6.40;;
64595;SDS011;51003;51.628;6.670;2023-03-01T08:23:32;12.98;;;6.40;;
64595;SDS011;51003;51.628;6.670;2023-03-01T08:26:04;11.63;;;7.13;;
64595;SDS011;51003;51.628;6.670;2023-03-01T08:28:32;11.93;;;7.05;;
64595;SDS011;51003;51.628;6.670;2023-03-01T08:30:57;10.70;;;5.87;;
64595;SDS011;51003;51.628;6.670;2023-03-01T08:33:23;13.67;;;6.17;;
64595;SDS011;51003;51.628;6.670;2023-03-01T08:35:49;15.57;;;6.75;;
64595;SDS011;51003;51.628;6.670;2023-03-01T08:38:14;11.47;;;6.00;;
64595;SDS011;51003;51.628;6.670;2023-03-01T08:40:39;14.33;;;7.10;;
64595;SDS011;51003;51.628;6.670;2023-03-01T08:56:49;11.13;;;6.23;;
64595;SDS011;51003;51.628;6.670;2023-03-01T08:59:15;10.13;;;6.97;;
64595;SDS011;51003;51.628;6.670;2023-03-01T09:01:42;15.43;;;7.00;;
64595;SDS011;51003;51.628;6.670;2023-03-01T09:04:10;17.60;;;7.37;;
64595;SDS011;51003;51.628;6.670;2023-03-01T09:06:36;12.50;;;6.73;;
64595;SDS011;51003;51.628;6.670;2023-03-01T09:09:02;10.50;;;6.33;;
64595;SDS011;51003;51.628;6.670;2023-03-01T09:11:28;11.83;;;6.90;;
64595;SDS011;51003;51.628;6.670;2023-03-01T09:13:54;10.37;;;6.80;;
64595;SDS011;51003;51.628;6.670;2023-03-01T09:16:20;9.77;;;6.80;;
64595;SDS011;51003;51.628;6.670;2023-03-01T09:18:49;13.23;;;7.10;;
64595;SDS011;51003;51.628;6.670;2023-03-01T09:21:16;12.93;;;7.00;;
64595;SDS011;51003;51.628;6.670;2023-03-01T09:23:44;9.67;;;6.73;;
64595;SDS011;51003;51.628;6.670;2023-03-01T09:26:17;9.30;;;6.70;;
64595;SDS011;51003;51.628;6.670;2023-03-01T09:28:46;10.57;;;7.03;;
64595;SDS011;51003;51.628;6.670;2023-03-01T09:31:12;11.80;;;6.77;;
64595;SDS011;51003;51.628;6.670;2023-03-01T09:33:38;16.20;;;7.70;;
64595;SDS011;51003;51.628;6.670;2023-03-01T09:36:06;12.00;;;7.20;;
64595;SDS011;51003;51.628;6.670;2023-03-01T09:38:33;10.27;;;7.53;;
64595;SDS011;51003;51.628;6.670;2023-03-01T09:40:59;10.00;;;7.30;;
64595;SDS011;51003;51.628;6.670;2023-03-01T09:46:08;11.80;;;7.60;;
64595;SDS011;51003;51.628;6.670;2023-03-01T09:48:41;10.80;;;6.80;;
64595;SDS011;51003;51.628;6.670;2023-03-01T09:51:08;10.73;;;7.50;;
64595;SDS011;51003;51.628;6.670;2023-03-01T09:53:39;10.10;;;7.57;;
64595;SDS011;51003;51.628;6.670;2023-03-01T09:56:05;13.00;;;7.20;;
64595;SDS011;51003;51.628;6.670;2023-03-01T09:58:54;11.00;;;7.80;;
64595;SDS011;51003;51.628;6.670;2023-03-01T10:01:34;10.20;;;7.90;;
64595;SDS011;51003;51.628;6.670;2023-03-01T10:06:56;11.30;;;7.17;;
64595;SDS011;51003;51.628;6.670;2023-03-01T10:09:23;13.57;;;7.30;;
64595;SDS011;51003;51.628;6.670;2023-03-01T10:11:50;11.47;;;7.53;;
64595;SDS011;51003;51.628;6.670;2023-03-01T10:18:28;9.00;;;7.30;;
64595;SDS011;51003;51.628;6.670;2023-03-01T10:23:11;10.70;;;7.40;;
64595;SDS011;51003;51.628;6.670;2023-03-01T10:28:58;9.80;;;7.40;;
64595;SDS011;51003;51.628;6.670;2023-03-01T10:31:22;11.03;;;7.30;;
64595;SDS011;51003;51.628;6.670;2023-03-01T10:33:54;12.93;;;8.13;;
64595;SDS011;51003;51.628;6.670;2023-03-01T10:36:21;10.13;;;7.60;;
64595;SDS011;51003;51.628;6.670;2023-03-01T10:38:54;13.00;;;7.50;;
64595;SDS011;51003;51.628;6.670;2023-03-01T10:41:22;10.00;;;7.50;;
64595;SDS011;51003;51.628;6.670;2023-03-01T10:44:00;13.40;;;8.30;;
64595;SDS011;51003;51.628;6.670;2023-03-01T10:46:27;10.17;;;7.50;;
64595;SDS011;51003;51.628;6.670;2023-03-01T10:51:48;8.83;;;7.93;;
64595;SDS011;51003;51.628;6.670;2023-03-01T10:54:28;10.20;;;7.27;;
64595;SDS011;51003;51.628;6.670;2023-03-01T10:56:56;10.33;;;7.40;;
64595;SDS011;51003;51.628;6.670;2023-03-01T10:59:32;10.60;;;8.13;;
64595;SDS011;51003;51.628;6.670;2023-03-01T11:04:56;11.23;;;7.30;;
64595;SDS011;51003;51.628;6.670;2023-03-01T11:07:26;11.37;;;7.50;;
64595;SDS011;51003;51.628;6.670;2023-03-01T11:09:51;11.07;;;8.00;;
64595;SDS011;51003;51.628;6.670;2023-03-01T11:12:16;8.50;;;7.60;;
64595;SDS011;51003;51.628;6.670;2023-03-01T11:14:46;9.50;;;7.33;;
64595;SDS011;51003;51.628;6.670;2023-03-01T11:17:24;10.20;;;7.60;;
64595;SDS011;51003;51.628;6.670;2023-03-01T11:20:33;6.70;;;6.00;;
64595;SDS011;51003;51.628;6.670;2023-03-01T11:22:47;7.57;;;6.77;;
64595;SDS011;51003;51.628;6.670;2023-03-01T11:25:19;9.10;;;6.83;;
64595;SDS011;51003;51.628;6.670;2023-03-01T11:27:48;8.50;;;7.10;;
64595;SDS011;51003;51.628;6.670;2023-03-01T11:35:27;8.53;;;7.27;;
64595;SDS011;51003;51.628;6.670;2023-03-01T11:54:44;12.13;;;6.27;;
64595;SDS011;51003;51.628;6.670;2023-03-01T12:11:38;8.50;;;6.37;;
64595;SDS011;51003;51.628;6.670;2023-03-01T12:14:13;8.33;;;6.80;;
64595;SDS011;51003;51.628;6.670;2023-03-01T12:17:16;9.63;;;7.07;;
64595;SDS011;51003;51.628;6.670;2023-03-01T12:25:38;8.73;;;6.60;;
64595;SDS011;51003;51.628;6.670;2023-03-01T12:33:49;8.67;;;6.70;;
64595;SDS011;51003;51.628;6.670;2023-03-01T12:36:23;8.93;;;7.07;;
64595;SDS011;51003;51.628;6.670;2023-03-01T12:44:52;8.30;;;6.60;;
64595;SDS011;51003;51.628;6.670;2023-03-01T12:50:21;13.37;;;6.93;;
64595;SDS011;51003;51.628;6.670;2023-03-01T13:00:32;8.27;;;6.63;;
64595;SDS011;51003;51.628;6.670;2023-03-01T13:03:19;8.53;;;6.80;;
64595;SDS011;51003;51.628;6.670;2023-03-01T13:08:39;8.60;;;7.37;;
64595;SDS011;51003;51.628;6.670;2023-03-01T13:11:17;7.90;;;7.10;;
64595;SDS011;51003;51.628;6.670;2023-03-01T13:13:44;10.27;;;7.07;;
64595;SDS011;51003;51.628;6.670;2023-03-01T13:21:40;10.03;;;7.20;;
64595;SDS011;51003;51.628;6.670;2023-03-01T13:24:26;8.23;;;7.40;;
64595;SDS011;51003;51.628;6.670;2023-03-01T13:34:48;10.17;;;7.47;;
64595;SDS011;51003;51.628;6.670;2023-03-01T13:37:19;10.07;;;8.07;;
64595;SDS011;51003;51.628;6.670;2023-03-01T13:39:46;9.93;;;8.17;;
64595;SDS011;51003;51.628;6.670;2023-03-01T13:50:38;11.50;;;8.10;;
64595;SDS011;51003;51.628;6.670;2023-03-01T13:53:11;10.10;;;8.33;;
64595;SDS011;51003;51.628;6.670;2023-03-01T13:55:42;13.77;;;8.37;;
64595;SDS011;51003;51.628;6.670;2023-03-01T13:58:19;10.03;;;8.33;;
64595;SDS011;51003;51.628;6.670;2023-03-01T14:00:54;12.00;;;8.97;;
64595;SDS011;51003;51.628;6.670;2023-03-01T14:03:40;12.93;;;8.47;;
64595;SDS011;51003;51.628;6.670;2023-03-01T14:06:16;11.53;;;8.83;;
64595;SDS011;51003;51.628;6.670;2023-03-01T14:09:26;10.00;;;8.53;;
64595;SDS011;51003;51.628;6.670;2023-03-01T14:20:27;11.03;;;9.10;;
64595;SDS011;51003;51.628;6.670;2023-03-01T14:22:55;12.00;;;9.40;;
64595;SDS011;51003;51.628;6.670;2023-03-01T14:25:32;12.47;;;9.33;;
64595;SDS011;51003;51.628;6.670;2023-03-01T14:30:50;12.50;;;8.43;;
64595;SDS011;51003;51.628;6.670;2023-03-01T14:38:51;15.00;;;10.20;;
64595;SDS011;51003;51.628;6.670;2023-03-01T14:41:24;23.73;;;9.20;;
64595;SDS011;51003;51.628;6.670;2023-03-01T14:43:53;13.63;;;9.33;;
64595;SDS011;51003;51.628;6.670;2023-03-01T14:49:01;10.90;;;8.57;;
64595;SDS011;51003;51.628;6.670;2023-03-01T14:51:39;11.10;;;8.73;;
64595;SDS011;51003;51.628;6.670;2023-03-01T14:54:18;11.13;;;8.20;;
64595;SDS011;51003;51.628;6.670;2023-03-01T14:56:50;13.43;;;9.03;;
64595;SDS011;51003;51.628;6.670;2023-03-01T14:59:18;9.90;;;8.63;;
64595;SDS011;51003;51.628;6.670;2023-03-01T15:01:46;10.13;;;8.90;;
64595;SDS011;51003;51.628;6.670;2023-03-01T15:04:12;12.20;;;8.70;;
64595;SDS011;51003;51.628;6.670;2023-03-01T15:06:39;10.73;;;8.57;;
64595;SDS011;51003;51.628;6.670;2023-03-01T15:09:04;10.00;;;8.23;;
64595;SDS011;51003;51.628;6.670;2023-03-01T15:11:30;10.50;;;8.80;;
64595;SDS011;51003;51.628;6.670;2023-03-01T15:13:57;14.13;;;8.77;;
64595;SDS011;51003;51.628;6.670;2023-03-01T15:21:26;11.47;;;8.73;;
64595;SDS011;51003;51.628;6.670;2023-03-01T15:23:59;10.30;;;8.17;;
64595;SDS011;51003;51.628;6.670;2023-03-01T15:26:28;13.43;;;8.40;;
64595;SDS011;51003;51.628;6.670;2023-03-01T15:28:58;11.23;;;8.30;;
64595;SDS011;51003;51.628;6.670;2023-03-01T15:36:59;12.23;;;8.30;;
64595;SDS011;51003;51.628;6.670;2023-03-01T15:39:32;12.93;;;7.90;;
64595;SDS011;51003;51.628;6.670;2023-03-01T15:42:11;10.30;;;7.80;;
64595;SDS011;51003;51.628;6.670;2023-03-01T15:44:39;9.23;;;7.40;;
64595;SDS011;51003;51.628;6.670;2023-03-01T15:47:28;9.30;;;7.40;;
64595;SDS011;51003;51.628;6.670;2023-03-01T15:49:53;9.20;;;7.03;;
64595;SDS011;51003;51.628;6.670;2023-03-01T15:52:34;8.80;;;7.30;;
64595;SDS011;51003;51.628;6.670;2023-03-01T15:55:05;10.33;;;6.90;;
64595;SDS011;51003;51.628;6.670;2023-03-01T15:57:32;12.53;;;7.40;;
64595;SDS011;51003;51.628;6.670;2023-03-01T15:59:57;13.07;;;8.07;;
64595;SDS011;51003;51.628;6.670;2023-03-01T16:02:23;9.00;;;7.23;;
64595;SDS011;51003;51.628;6.670;2023-03-01T16:04:49;12.20;;;7.87;;
64595;SDS011;51003;51.628;6.670;2023-03-01T16:07:14;9.43;;;7.40;;
64595;SDS011;51003;51.628;6.670;2023-03-01T16:09:40;14.93;;;8.83;;
64595;SDS011;51003;51.628;6.670;2023-03-01T16:12:08;11.67;;;7.17;;
64595;SDS011;51003;51.628;6.670;2023-03-01T16:14:38;10.17;;;7.17;;
64595;SDS011;51003;51.628;6.670;2023-03-01T16:17:03;9.93;;;7.30;;
64595;SDS011;51003;51.628;6.670;2023-03-01T16:19:29;10.90;;;7.40;;
64595;SDS011;51003;51.628;6.670;2023-03-01T16:21:54;11.50;;;7.10;;
64595;SDS011;51003;51.628;6.670;2023-03-01T16:24:20;10.73;;;7.30;;
64595;SDS011;51003;51.628;6.670;2023-03-01T16:26:45;10.90;;;7.63;;
64595;SDS011;51003;51.628;6.670;2023-03-01T16:29:10;10.27;;;7.03;;
64595;SDS011;51003;51.628;6.670;2023-03-01T16:31:36;13.30;;;7.60;;
64595;SDS011;51003;51.628;6.670;2023-03-01T16:34:01;10.90;;;6.73;;
64595;SDS011;51003;51.628;6.670;2023-03-01T16:36:27;7.47;;;5.90;;
64595;SDS011;51003;51.628;6.670;2023-03-01T16:38:57;8.60;;;6.33;;
64595;SDS011;51003;51.628;6.670;2023-03-01T16:41:24;10.10;;;6.60;;
64595;SDS011;51003;51.628;6.670;2023-03-01T16:43:49;9.50;;;6.40;;
64595;SDS011;51003;51.628;6.670;2023-03-01T16:48:48;10.13;;;6.43;;
64595;SDS011;51003;51.628;6.670;2023-03-01T16:51:14;10.23;;;6.40;;
64595;SDS011;51003;51.628;6.670;2023-03-01T16:53:40;8.73;;;6.30;;
64595;SDS011;51003;51.628;6.670;2023-03-01T16:56:07;10.63;;;6.00;;
64595;SDS011;51003;51.628;6.670;2023-03-01T16:58:34;10.23;;;6.27;;
64595;SDS011;51003;51.628;6.670;2023-03-01T17:01:07;8.40;;;6.27;;
64595;SDS011;51003;51.628;6.670;2023-03-01T17:03:37;9.47;;;6.50;;
64595;SDS011;51003;51.628;6.670;2023-03-01T17:06:04;9.23;;;6.13;;
64595;SDS011;51003;51.628;6.670;2023-03-01T17:08:34;9.40;;;6.27;;
64595;SDS011;51003;51.628;6.670;2023-03-01T17:11:04;11.30;;;6.63;;
64595;SDS011;51003;51.628;6.670;2023-03-01T17:13:34;8.83;;;6.17;;
64595;SDS011;51003;51.628;6.670;2023-03-01T17:16:02;9.90;;;6.40;;
64595;SDS011;51003;51.628;6.670;2023-03-01T17:18:29;10.10;;;6.60;;
64595;SDS011;51003;51.628;6.670;2023-03-01T17:20:54;16.80;;;6.93;;
64595;SDS011;51003;51.628;6.670;2023-03-01T17:23:20;12.80;;;7.13;;
64595;SDS011;51003;51.628;6.670;2023-03-01T17:28:50;12.47;;;7.23;;
64595;SDS011;51003;51.628;6.670;2023-03-01T17:31:35;9.90;;;6.80;;
64595;SDS011;51003;51.628;6.670;2023-03-01T17:34:00;11.23;;;7.27;;
64595;SDS011;51003;51.628;6.670;2023-03-01T17:36:26;8.67;;;6.10;;
64595;SDS011;51003;51.628;6.670;2023-03-01T17:38:52;11.20;;;7.17;;
64595;SDS011;51003;51.628;6.670;2023-03-01T17:41:18;9.90;;;7.17;;
64595;SDS011;51003;51.628;6.670;2023-03-01T17:43:45;15.53;;;8.33;;
64595;SDS011;51003;51.628;6.670;2023-03-01T17:46:11;19.23;;;8.37;;
64595;SDS011;51003;51.628;6.670;2023-03-01T17:48:37;14.93;;;8.13;;
64595;SDS011;51003;51.628;6.670;2023-03-01T17:51:09;14.40;;;8.00;;
64595;SDS011;51003;51.628;6.670;2023-03-01T17:53:37;14.77;;;8.63;;
64595;SDS011;51003;51.628;6.670;2023-03-01T17:56:03;17.70;;;9.37;;
64595;SDS011;51003;51.628;6.670;2023-03-01T17:58:29;16.27;;;9.57;;
64595;SDS011;51003;51.628;6.670;2023-03-01T18:00:55;13.57;;;8.63;;
64595;SDS011;51003;51.628;6.670;2023-03-01T18:03:20;17.70;;;9.10;;
64595;SDS011;51003;51.628;6.670;2023-03-01T18:05:46;15.63;;;7.63;;
64595;SDS011;51003;51.628;6.670;2023-03-01T18:08:12;14.73;;;7.73;;
64595;SDS011;51003;51.628;6.670;2023-03-01T18:10:38;13.63;;;7.00;;
64595;SDS011;51003;51.628;6.670;2023-03-01T18:13:03;10.90;;;6.80;;
64595;SDS011;51003;51.628;6.670;2023-03-01T18:15:30;11.13;;;6.47;;
64595;SDS011;51003;51.628;6.670;2023-03-01T18:17:56;11.80;;;7.00;;
64595;SDS011;51003;51.628;6.670;2023-03-01T18:20:22;17.60;;;8.23;;
64595;SDS011;51003;51.628;6.670;2023-03-01T18:26:22;12.83;;;7.30;;
64595;SDS011;51003;51.628;6.670;2023-03-01T18:38:14;12.17;;;6.40;;
64595;SDS011;51003;51.628;6.670;2023-03-01T18:40:43;11.33;;;6.70;;
64595;SDS011;51003;51.628;6.670;2023-03-01T18:43:09;10.50;;;6.57;;
64595;SDS011;51003;51.628;6.670;2023-03-01T18:45:55;12.00;;;6.30;;
64595;SDS011;51003;51.628;6.670;2023-03-01T18:48:24;10.53;;;6.63;;
64595;SDS011;51003;51.628;6.670;2023-03-01T18:50:50;10.47;;;7.00;;
64595;SDS011;51003;51.628;6.670;2023-03-01T18:53:15;13.10;;;7.30;;
64595;SDS011;51003;51.628;6.670;2023-03-01T18:59:09;10.50;;;6.63;;
64595;SDS011;51003;51.628;6.670;2023-03-01T19:04:49;11.23;;;6.20;;
64595;SDS011;51003;51.628;6.670;2023-03-01T19:10:45;9.60;;;5.37;;
64595;SDS011;51003;51.628;6.670;2023-03-01T19:13:11;10.27;;;6.30;;
64595;SDS011;51003;51.628;6.670;2023-03-01T19:15:36;11.57;;;6.27;;
64595;SDS011;51003;51.628;6.670;2023-03-01T19:18:02;12.20;;;6.83;;
64595;SDS011;51003;51.628;6.670;2023-03-01T19:20:29;9.57;;;6.10;;
64595;SDS011;51003;51.628;6.670;2023-03-01T19:23:05;10.30;;;6.00;;
64595;SDS011;51003;51.628;6.670;2023-03-01T19:32:15;8.70;;;5.80;;
64595;SDS011;51003;51.628;6.670;2023-03-01T19:38:13;8.53;;;5.20;;
64595;SDS011;51003;51.628;6.670;2023-03-01T19:40:38;9.67;;;5.43;;
64595;SDS011;51003;51.628;6.670;2023-03-01T19:45:51;9.47;;;5.40;;
64595;SDS011;51003;51.628;6.670;2023-03-01T19:51:09;9.80;;;5.80;;
64595;SDS011;51003;51.628;6.670;2023-03-01T19:56:39;14.50;;;6.80;;
64595;SDS011;51003;51.628;6.670;2023-03-01T19:59:05;12.20;;;6.93;;
64595;SDS011;51003;51.628;6.670;2023-03-01T20:01:42;10.03;;;5.87;;
64595;SDS011;51003;51.628;6.670;2023-03-01T20:07:35;10.97;;;5.97;;
64595;SDS011;51003;51.628;6.670;2023-03-01T20:12:50;10.63;;;5.87;;
64595;SDS011;51003;51.628;6.670;2023-03-01T20:15:17;10.00;;;6.10;;
64595;SDS011;51003;51.628;6.670;2023-03-01T20:17:52;10.37;;;5.63;;
64595;SDS011;51003;51.628;6.670;2023-03-01T20:20:17;10.17;;;5.20;;
64595;SDS011;51003;51.628;6.670;2023-03-01T20:22:43;10.77;;;5.47;;
64595;SDS011;51003;51.628;6.670;2023-03-01T20:25:22;7.90;;;5.53;;
64595;SDS011;51003;51.628;6.670;2023-03-01T20:31:12;8.37;;;5.10;;
64595;SDS011;51003;51.628;6.670;2023-03-01T20:36:48;7.20;;;5.03;;
64595;SDS011;51003;51.628;6.670;2023-03-01T20:39:14;9.50;;;5.40;;
64595;SDS011;51003;51.628;6.670;2023-03-01T20:41:47;8.00;;;5.50;;
64595;SDS011;51003;51.628;6.670;2023-03-01T20:44:30;6.53;;;4.60;;
64595;SDS011;51003;51.628;6.670;2023-03-01T20:46:55;9.30;;;5.40;;
64595;SDS011;51003;51.628;6.670;2023-03-01T20:49:21;8.17;;;5.27;;
64595;SDS011;51003;51.628;6.670;2023-03-01T20:51:48;8.73;;;5.27;;
64595;SDS011;51003;51.628;6.670;2023-03-01T20:54:14;12.97;;;5.20;;
64595;SDS011;51003;51.628;6.670;2023-03-01T21:10:03;7.87;;;5.17;;
64595;SDS011;51003;51.628;6.670;2023-03-01T21:16:06;9.50;;;5.50;;
64595;SDS011;51003;51.628;6.670;2023-03-01T21:18:37;8.27;;;4.80;;
64595;SDS011;51003;51.628;6.670;2023-03-01T21:30:49;6.50;;;4.70;;
64595;SDS011;51003;51.628;6.670;2023-03-01T21:33:15;8.03;;;5.17;;
64595;SDS011;51003;51.628;6.670;2023-03-01T21:35:49;9.60;;;5.07;;
64595;SDS011;51003;51.628;6.670;2023-03-01T21:38:27;8.13;;;4.67;;
64595;SDS011;51003;51.628;6.670;2023-03-01T21:40:55;6.40;;;4.53;;
64595;SDS011;51003;51.628;6.670;2023-03-01T21:43:21;7.93;;;4.70;;
64595;SDS011;51003;51.628;6.670;2023-03-01T21:45:53;7.93;;;4.70;;
64595;SDS011;51003;51.628;6.670;2023-03-01T21:48:18;8.27;;;5.40;;
64595;SDS011;51003;51.628;6.670;2023-03-01T21:50:45;7.90;;;5.00;;
64595;SDS011;51003;51.628;6.670;2023-03-01T21:53:18;9.67;;;5.00;;
64595;SDS011;51003;51.628;6.670;2023-03-01T21:55:47;8.60;;;4.60;;
64595;SDS011;51003;51.628;6.670;2023-03-01T21:58:13;6.77;;;4.80;;
64595;SDS011;51003;51.628;6.670;2023-03-01T22:00:40;9.90;;;4.50;;
64595;SDS011;51003;51.628;6.670;2023-03-01T22:03:05;6.60;;;5.00;;
64595;SDS011;51003;51.628;6.670;2023-03-01T22:05:31;10.50;;;5.30;;
64595;SDS011;51003;51.628;6.670;2023-03-01T22:07:56;8.70;;;4.67;;
64595;SDS011;51003;51.628;6.670;2023-03-01T22:10:23;8.53;;;5.20;;
64595;SDS011;51003;51.628;6.670;2023-03-01T22:13:08;7.90;;;5.37;;
64595;SDS011;51003;51.628;6.670;2023-03-01T22:15:34;9.67;;;5.30;;
64595;SDS011;51003;51.628;6.670;2023-03-01T22:18:04;7.50;;;4.70;;
64595;SDS011;51003;51.628;6.670;2023-03-01T22:20:43;12.30;;;4.90;;
64595;SDS011;51003;51.628;6.670;2023-03-01T22:26:19;7.40;;;4.93;;
64595;SDS011;51003;51.628;6.670;2023-03-01T22:29:08;6.97;;;4.90;;
64595;SDS011;51003;51.628;6.670;2023-03-01T22:31:49;9.03;;;4.77;;
64595;SDS011;51003;51.628;6.670;2023-03-01T22:34:15;7.97;;;5.03;;
64595;SDS011;51003;51.628;6.670;2023-03-01T22:36:42;8.10;;;5.20;;
64595;SDS011;51003;51.628;6.670;2023-03-01T22:39:09;8.57;;;5.67;;
64595;SDS011;51003;51.628;6.670;2023-03-01T22:44:27;6.70;;;4.83;;
64595;SDS011;51003;51.628;6.670;2023-03-01T22:46:57;10.80;;;5.13;;
64595;SDS011;51003;51.628;6.670;2023-03-01T22:49:23;10.23;;;5.10;;
64595;SDS011;51003;51.628;6.670;2023-03-01T22:51:49;6.67;;;4.80;;
64595;SDS011;51003;51.628;6.670;2023-03-01T22:54:16;9.87;;;5.23;;
64595;SDS011;51003;51.628;6.670;2023-03-01T22:56:42;11.63;;;4.67;;
64595;SDS011;51003;51.628;6.670;2023-03-01T22:59:09;11.43;;;4.97;;
64595;SDS011;51003;51.628;6.670;2023-03-01T23:01:37;7.73;;;4.80;;
64595;SDS011;51003;51.628;6.670;2023-03-01T23:04:03;7.30;;;5.17;;
64595;SDS011;51003;51.628;6.670;2023-03-01T23:06:29;7.10;;;4.70;;
64595;SDS011;51003;51.628;6.670;2023-03-01T23:08:56;11.67;;;5.53;;
64595;SDS011;51003;51.628;6.670;2023-03-01T23:11:24;8.80;;;5.03;;
64595;SDS011;51003;51.628;6.670;2023-03-01T23:13:51;6.27;;;4.20;;
64595;SDS011;51003;51.628;6.670;2023-03-01T23:16:17;7.70;;;4.90;;
64595;SDS011;51003;51.628;6.670;2023-03-01T23:18:42;8.20;;;4.97;;
64595;SDS011;51003;51.628;6.670;2023-03-01T23:21:12;8.50;;;5.00;;
64595;SDS011;51003;51.628;6.670;2023-03-01T23:23:39;8.63;;;5.50;;
64595;SDS011;51003;51.628;6.670;2023-03-01T23:26:05;8.73;;;5.67;;
64595;SDS011;51003;51.628;6.670;2023-03-01T23:28:31;7.07;;;5.07;;
64595;SDS011;51003;51.628;6.670;2023-03-01T23:31:00;8.70;;;5.23;;
64595;SDS011;51003;51.628;6.670;2023-03-01T23:33:28;11.60;;;5.10;;
64595;SDS011;51003;51.628;6.670;2023-03-01T23:36:01;8.27;;;5.47;;
64595;SDS011;51003;51.628;6.670;2023-03-01T23:38:50;10.03;;;5.53;;
64595;SDS011;51003;51.628;6.670;2023-03-01T23:41:18;10.13;;;5.00;;
64595;SDS011;51003;51.628;6.670;2023-03-01T23:43:45;8.40;;;5.07;;
64595;SDS011;51003;51.628;6.670;2023-03-01T23:46:13;9.23;;;5.20;;
64595;SDS011;51003;51.628;6.670;2023-03-01T23:48:42;8.13;;;5.50;;
64595;SDS011;51003;51.628;6.670;2023-03-01T23:51:08;8.00;;;4.77;;
64595;SDS011;51003;51.628;6.670;2023-03-01T23:53:35;8.30;;;4.60;;
64595;SDS011;51003;51.628;6.670;2023-03-01T23:56:03;7.70;;;4.93;;
64595;SDS011;51003;51.628;6.670;2023-03-01T23:58:30;8.47;;;5.23;;
